createdAt,value
2019-01-19T00:00:59.342Z,2.50
2019-01-19T00:04:15.683Z,2.47
2019-01-19T00:07:37.123Z,2.40
2019-01-19T00:10:42.005Z,2.57
2019-01-19T00:13:35.465Z,3.57
2019-01-19T00:16:18.659Z,3.03
2019-01-19T00:19:32.675Z,3.00
2019-01-19T00:22:24.966Z,2.60
2019-01-19T00:25:22.362Z,2.20
2019-01-19T00:28:18.009Z,2.43
2019-01-19T00:31:16.378Z,2.30
2019-01-19T00:34:08.433Z,3.00
2019-01-19T00:37:16.092Z,3.17
2019-01-19T00:40:34.111Z,3.00
2019-01-19T00:43:23.385Z,3.13
2019-01-19T00:46:21.512Z,2.83
2019-01-19T00:49:08.405Z,2.77
2019-01-19T00:52:03.997Z,2.80
2019-01-19T00:54:58.251Z,2.83
2019-01-19T00:58:34.514Z,2.57
2019-01-19T01:01:43.803Z,2.80
2019-01-19T01:04:38.247Z,2.60
2019-01-19T01:07:43.120Z,2.60
2019-01-19T01:10:38.187Z,2.70
2019-01-19T01:13:41.939Z,2.63
2019-01-19T01:16:25.134Z,2.50
2019-01-19T01:19:19.738Z,2.60
2019-01-19T01:22:40.670Z,2.40
2019-01-19T01:25:49.655Z,2.37
2019-01-19T01:28:52.430Z,2.47
2019-01-19T01:31:41.743Z,2.70
2019-01-19T01:34:40.208Z,2.33
2019-01-19T01:37:42.630Z,2.50
2019-01-19T01:40:46.151Z,2.50
2019-01-19T01:43:19.123Z,2.63
2019-01-19T01:46:52.563Z,2.60
2019-01-19T01:49:37.543Z,2.03
2019-01-19T01:52:49.611Z,3.00
2019-01-19T01:55:44.135Z,3.20
2019-01-19T01:58:36.289Z,2.93
2019-01-19T02:01:13.367Z,2.50
2019-01-19T02:04:18.119Z,2.70
2019-01-19T02:07:23.551Z,2.50
2019-01-19T02:10:18.956Z,2.80
2019-01-19T02:13:17.247Z,2.67
2019-01-19T02:16:32.648Z,2.60
2019-01-19T02:19:47.999Z,2.50
2019-01-19T02:22:39.163Z,2.90
2019-01-19T02:25:51.111Z,2.80
2019-01-19T02:28:28.205Z,2.80
2019-01-19T02:31:46.516Z,2.73
2019-01-19T02:34:30.231Z,2.70
2019-01-19T02:37:31.087Z,2.93
2019-01-19T02:40:31.511Z,2.57
2019-01-19T02:43:24.586Z,2.70
2019-01-19T02:46:49.011Z,2.60
2019-01-19T02:49:42.470Z,2.40
2019-01-19T02:52:33.247Z,2.80
2019-01-19T02:55:43.312Z,2.80
2019-01-19T02:58:40.283Z,2.90
2019-01-19T03:02:09.177Z,2.67
2019-01-19T03:05:08.184Z,2.83
2019-01-19T03:07:51.813Z,3.03
2019-01-19T03:10:59.010Z,3.00
2019-01-19T03:13:58.457Z,3.20
2019-01-19T03:17:06.114Z,3.40
2019-01-19T03:20:02.536Z,2.83
2019-01-19T03:23:07.726Z,2.77
2019-01-19T03:26:02.241Z,3.07
2019-01-19T03:28:53.868Z,3.20
2019-01-19T03:32:15.147Z,3.00
2019-01-19T03:35:18.182Z,3.33
2019-01-19T03:38:30.109Z,2.70
2019-01-19T03:41:22.042Z,3.10
2019-01-19T03:44:26.956Z,2.90
2019-01-19T03:47:25.959Z,2.97
2019-01-19T03:50:30.073Z,2.90
2019-01-19T03:53:07.174Z,2.93
2019-01-19T03:56:18.349Z,3.13
2019-01-19T03:59:11.579Z,3.13
2019-01-19T04:02:35.872Z,3.10
2019-01-19T04:05:50.723Z,3.00
2019-01-19T04:08:59.747Z,2.67
2019-01-19T04:12:07.673Z,2.80
2019-01-19T04:15:20.247Z,3.60
2019-01-19T04:18:05.314Z,2.93
2019-01-19T04:21:11.292Z,3.00
2019-01-19T04:23:41.591Z,3.30
2019-01-19T04:26:29.473Z,2.80
2019-01-19T04:28:57.656Z,2.90
2019-01-19T04:31:25.047Z,2.67
2019-01-19T04:33:52.693Z,2.83
2019-01-19T04:36:21.735Z,3.40
2019-01-19T04:38:49.738Z,2.97
2019-01-19T04:41:17.152Z,3.00
2019-01-19T04:43:44.571Z,3.30
2019-01-19T04:46:12.127Z,3.43
2019-01-19T04:48:40.376Z,2.80
2019-01-19T04:51:07.806Z,2.90
2019-01-19T04:53:35.321Z,3.20
2019-01-19T04:56:02.768Z,2.70
2019-01-19T04:58:30.259Z,3.00
2019-01-19T05:00:57.690Z,2.93
2019-01-19T05:03:25.167Z,3.20
2019-01-19T05:05:52.686Z,3.20
2019-01-19T05:08:20.080Z,2.70
2019-01-19T05:10:47.529Z,3.07
2019-01-19T05:13:14.944Z,2.90
2019-01-19T05:15:42.371Z,2.60
2019-01-19T05:18:09.964Z,2.73
2019-01-19T05:20:37.435Z,2.90
2019-01-19T05:23:04.846Z,2.83
2019-01-19T05:25:32.297Z,2.67
2019-01-19T05:27:59.767Z,2.73
2019-01-19T05:30:27.192Z,2.97
2019-01-19T05:32:54.606Z,2.60
2019-01-19T05:35:22.183Z,2.90
2019-01-19T05:37:49.597Z,2.50
2019-01-19T05:40:17.015Z,2.90
2019-01-19T05:42:44.529Z,2.90
2019-01-19T05:45:13.548Z,2.77
2019-01-19T05:47:41.027Z,2.90
2019-01-19T05:50:12.060Z,2.80
2019-01-19T05:52:39.472Z,2.70
2019-01-19T05:55:07.086Z,2.83
2019-01-19T05:57:34.513Z,2.73
2019-01-19T06:00:02.091Z,3.07
2019-01-19T06:02:29.792Z,2.80
2019-01-19T06:04:57.239Z,3.20
2019-01-19T06:07:24.723Z,3.20
2019-01-19T06:09:52.225Z,3.03
2019-01-19T06:12:19.737Z,2.77
2019-01-19T06:14:47.254Z,3.17
2019-01-19T06:17:14.658Z,2.90
2019-01-19T06:19:42.371Z,2.93
2019-01-19T06:22:10.285Z,2.70
2019-01-19T06:24:37.663Z,3.00
2019-01-19T06:27:05.111Z,2.70
2019-01-19T06:29:32.922Z,2.97
2019-01-19T06:32:00.314Z,2.90
2019-01-19T06:34:27.719Z,2.73
2019-01-19T06:36:55.421Z,2.93
2019-01-19T06:39:23.045Z,2.63
2019-01-19T06:41:50.464Z,2.90
2019-01-19T06:44:18.087Z,2.77
2019-01-19T06:46:45.549Z,2.93
2019-01-19T06:49:12.992Z,3.07
2019-01-19T06:51:40.479Z,3.07
2019-01-19T06:54:08.222Z,2.83
2019-01-19T06:56:35.724Z,2.77
2019-01-19T06:59:03.238Z,2.70
2019-01-19T07:01:30.678Z,2.90
2019-01-19T07:03:58.116Z,2.67
2019-01-19T07:06:25.735Z,2.80
2019-01-19T07:08:53.098Z,3.10
2019-01-19T07:11:20.592Z,2.80
2019-01-19T07:13:48.060Z,2.70
2019-01-19T07:16:15.514Z,3.03
2019-01-19T07:18:43.060Z,3.10
2019-01-19T07:21:10.519Z,2.70
2019-01-19T07:23:37.907Z,3.00
2019-01-19T07:26:05.780Z,2.80
2019-01-19T07:28:33.260Z,3.13
2019-01-19T07:31:00.734Z,3.00
2019-01-19T07:33:28.204Z,2.80
2019-01-19T07:35:55.620Z,3.20
2019-01-19T07:38:23.099Z,3.03
2019-01-19T07:40:50.665Z,3.10
2019-01-19T07:43:18.676Z,2.80
2019-01-19T07:45:46.066Z,2.70
2019-01-19T07:48:13.730Z,3.03
2019-01-19T07:50:41.115Z,2.77
2019-01-19T07:53:08.592Z,3.00
2019-01-19T07:55:36.029Z,3.30
2019-01-19T07:58:03.471Z,3.10
2019-01-19T08:00:32.252Z,3.50
2019-01-19T08:02:59.652Z,3.00
2019-01-19T08:05:27.209Z,3.00
2019-01-19T08:07:54.748Z,3.10
2019-01-19T08:10:22.256Z,3.10
2019-01-19T08:12:49.672Z,2.90
2019-01-19T08:15:19.536Z,3.13
2019-01-19T08:17:46.975Z,3.23
2019-01-19T08:20:14.947Z,3.30
2019-01-19T08:22:42.340Z,3.30
2019-01-19T08:25:10.086Z,3.13
2019-01-19T08:27:40.093Z,3.03
2019-01-19T08:30:11.913Z,3.13
2019-01-19T08:32:39.347Z,3.13
2019-01-19T08:35:07.464Z,3.67
2019-01-19T08:37:34.891Z,3.07
2019-01-19T08:40:02.318Z,3.70
2019-01-19T08:42:30.227Z,3.97
2019-01-19T08:44:57.879Z,3.53
2019-01-19T08:47:28.323Z,3.40
2019-01-19T08:49:55.791Z,3.47
2019-01-19T08:52:23.207Z,3.70
2019-01-19T08:54:50.690Z,4.07
2019-01-19T08:57:18.125Z,3.90
2019-01-19T08:59:45.549Z,3.57
2019-01-19T09:02:12.958Z,4.27
2019-01-19T09:04:40.400Z,4.10
2019-01-19T09:07:07.979Z,3.77
2019-01-19T09:09:35.427Z,3.80
2019-01-19T09:12:02.948Z,3.67
2019-01-19T09:14:30.426Z,4.23
2019-01-19T09:16:58.254Z,4.00
2019-01-19T09:19:25.770Z,3.70
2019-01-19T09:21:53.202Z,3.37
2019-01-19T09:24:23.958Z,3.67
2019-01-19T09:26:51.416Z,4.00
2019-01-19T09:29:18.831Z,4.30
2019-01-19T09:31:46.348Z,4.90
2019-01-19T09:34:13.810Z,5.13
2019-01-19T09:36:41.249Z,4.50
2019-01-19T09:39:19.253Z,4.27
2019-01-19T09:41:46.700Z,4.07
2019-01-19T09:44:14.239Z,4.43
2019-01-19T09:46:41.949Z,4.60
2019-01-19T09:49:09.494Z,4.30
2019-01-19T09:51:36.923Z,4.47
2019-01-19T09:54:04.724Z,4.57
2019-01-19T09:56:32.171Z,4.27
2019-01-19T09:58:59.619Z,4.10
2019-01-19T10:01:27.114Z,3.90
2019-01-19T10:03:54.564Z,3.57
2019-01-19T10:06:22.065Z,4.07
2019-01-19T10:08:49.565Z,4.00
2019-01-19T10:11:18.016Z,4.27
2019-01-19T10:13:45.888Z,3.93
2019-01-19T10:16:13.464Z,3.97
2019-01-19T10:18:40.928Z,3.77
2019-01-19T10:21:08.374Z,4.43
2019-01-19T10:23:35.871Z,4.63
2019-01-19T10:26:03.634Z,4.60
2019-01-19T10:28:31.067Z,6.07
2019-01-19T10:30:58.532Z,8.13
2019-01-19T10:33:25.968Z,7.03
2019-01-19T10:35:53.379Z,5.40
2019-01-19T10:38:20.922Z,5.47
2019-01-19T10:40:48.392Z,4.73
2019-01-19T10:43:15.885Z,5.47
2019-01-19T10:45:43.404Z,5.20
2019-01-19T10:48:10.986Z,4.80
2019-01-19T10:50:38.595Z,4.60
2019-01-19T10:53:06.183Z,5.03
2019-01-19T10:55:33.706Z,4.93
2019-01-19T10:58:01.143Z,5.23
2019-01-19T11:00:29.858Z,4.90
2019-01-19T11:03:01.000Z,4.83
2019-01-19T11:05:29.266Z,4.57
2019-01-19T11:08:03.567Z,4.97
2019-01-19T11:10:31.156Z,4.50
2019-01-19T11:12:58.703Z,5.00
2019-01-19T11:15:26.188Z,4.80
2019-01-19T11:17:53.606Z,4.70
2019-01-19T11:20:25.795Z,4.90
2019-01-19T11:22:55.960Z,4.90
2019-01-19T11:25:23.825Z,4.60
2019-01-19T11:27:51.393Z,4.97
2019-01-19T11:30:24.108Z,4.50
2019-01-19T11:32:51.670Z,4.87
2019-01-19T11:35:19.287Z,4.80
2019-01-19T11:37:46.812Z,4.50
2019-01-19T11:40:19.432Z,4.93
2019-01-19T11:42:47.785Z,4.90
2019-01-19T11:45:17.487Z,4.90
2019-01-19T11:47:45.045Z,5.07
2019-01-19T11:50:13.437Z,5.10
2019-01-19T11:52:40.852Z,5.13
2019-01-19T11:55:11.192Z,4.60
2019-01-19T11:57:38.650Z,4.43
2019-01-19T12:00:13.518Z,4.50
2019-01-19T12:02:40.988Z,5.10
2019-01-19T12:05:08.511Z,4.60
2019-01-19T12:07:36.113Z,4.43
2019-01-19T12:10:05.692Z,4.50
2019-01-19T12:12:33.111Z,4.27
2019-01-19T12:15:00.530Z,3.87
2019-01-19T12:17:27.976Z,3.80
2019-01-19T12:19:55.489Z,3.80
2019-01-19T12:22:22.921Z,3.50
2019-01-19T12:24:50.369Z,3.80
2019-01-19T12:27:17.872Z,3.37
2019-01-19T12:29:45.309Z,3.87
2019-01-19T12:32:12.770Z,3.13
2019-01-19T12:34:40.244Z,3.33
2019-01-19T12:37:07.652Z,2.97
2019-01-19T12:39:35.128Z,3.00
2019-01-19T12:42:02.662Z,3.10
2019-01-19T12:44:30.119Z,3.17
2019-01-19T12:46:57.611Z,2.63
2019-01-19T12:49:25.123Z,2.97
2019-01-19T12:51:52.554Z,2.83
2019-01-19T12:54:19.980Z,2.80
2019-01-19T12:56:47.475Z,3.07
2019-01-19T12:59:14.872Z,2.90
2019-01-19T13:01:42.372Z,2.57
2019-01-19T13:04:09.986Z,2.20
2019-01-19T13:06:59.625Z,2.70
2019-01-19T13:09:30.116Z,3.03
2019-01-19T13:12:28.389Z,2.53
2019-01-19T13:15:19.305Z,2.83
2019-01-19T13:18:10.856Z,2.90
2019-01-19T13:21:13.084Z,2.50
2019-01-19T13:24:40.454Z,2.37
2019-01-19T13:27:33.563Z,2.27
2019-01-19T13:30:46.425Z,2.23
2019-01-19T13:33:33.924Z,2.23
2019-01-19T13:36:38.139Z,2.37
2019-01-19T13:39:37.515Z,2.20
2019-01-19T13:42:55.784Z,2.80
2019-01-19T13:45:48.399Z,2.30
2019-01-19T13:48:50.663Z,2.43
2019-01-19T13:51:33.102Z,2.50
2019-01-19T13:55:03.457Z,2.30
2019-01-19T13:57:50.751Z,2.40
2019-01-19T14:00:54.794Z,2.10
2019-01-19T14:04:09.745Z,1.90
2019-01-19T14:07:27.893Z,2.07
2019-01-19T14:10:17.662Z,2.50
2019-01-19T14:13:29.866Z,1.90
2019-01-19T14:16:21.121Z,2.20
2019-01-19T14:19:29.463Z,2.10
2019-01-19T14:22:33.565Z,2.10
2019-01-19T14:25:23.853Z,1.73
2019-01-19T14:28:21.874Z,2.00
2019-01-19T14:31:17.383Z,2.13
2019-01-19T14:34:26.752Z,2.30
2019-01-19T14:37:38.806Z,3.60
2019-01-19T14:40:31.294Z,3.73
2019-01-19T14:43:51.522Z,3.87
2019-01-19T14:47:07.055Z,3.27
2019-01-19T14:50:18.315Z,3.50
2019-01-19T14:53:33.506Z,3.47
2019-01-19T14:56:51.666Z,3.73
2019-01-19T14:59:37.284Z,3.10
2019-01-19T15:02:48.531Z,3.50
2019-01-19T15:05:54.139Z,3.30
2019-01-19T15:08:38.936Z,3.60
2019-01-19T15:12:06.325Z,3.43
2019-01-19T15:15:27.906Z,3.20
2019-01-19T15:18:42.952Z,4.10
2019-01-19T15:22:05.132Z,3.90
2019-01-19T15:24:55.183Z,4.57
2019-01-19T15:27:59.717Z,4.33
2019-01-19T15:31:27.051Z,3.90
2019-01-19T15:34:54.097Z,3.73
2019-01-19T15:38:02.058Z,3.47
2019-01-19T15:41:05.289Z,3.73
2019-01-19T15:43:52.826Z,3.23
2019-01-19T15:46:56.880Z,3.30
2019-01-19T15:50:09.293Z,2.47
2019-01-19T15:52:48.166Z,2.47
2019-01-19T15:55:54.492Z,2.50
2019-01-19T15:58:34.085Z,2.50
2019-01-19T16:01:44.413Z,2.17
2019-01-19T16:05:01.609Z,2.60
2019-01-19T16:08:10.826Z,6.40
2019-01-19T16:11:28.719Z,2.27
2019-01-19T16:14:46.889Z,2.30
2019-01-19T16:17:35.037Z,2.17
2019-01-19T16:20:36.520Z,2.30
2019-01-19T16:23:44.369Z,2.80
2019-01-19T16:26:56.758Z,2.60
2019-01-19T16:29:55.831Z,2.57
2019-01-19T16:33:00.011Z,2.57
2019-01-19T16:36:05.219Z,2.37
2019-01-19T16:38:56.075Z,2.83
2019-01-19T16:41:57.038Z,2.73
2019-01-19T16:45:14.369Z,2.70
2019-01-19T16:48:18.981Z,2.90
2019-01-19T16:51:32.468Z,2.60
2019-01-19T16:54:18.720Z,2.57
2019-01-19T16:57:31.671Z,2.80
2019-01-19T17:00:32.481Z,2.63
2019-01-19T17:03:48.012Z,2.50
2019-01-19T17:06:42.519Z,2.30
2019-01-19T17:09:47.720Z,2.13
2019-01-19T17:12:39.585Z,2.40
2019-01-19T17:15:43.704Z,2.50
2019-01-19T17:18:33.791Z,2.27
2019-01-19T17:21:39.016Z,2.20
2019-01-19T17:24:36.026Z,2.30
2019-01-19T17:27:25.925Z,2.30
2019-01-19T17:30:27.913Z,2.20
2019-01-19T17:33:33.912Z,2.13
2019-01-19T17:36:31.233Z,2.70
2019-01-19T17:39:45.587Z,2.50
2019-01-19T17:42:50.555Z,3.60
2019-01-19T17:46:17.251Z,3.40
2019-01-19T17:49:29.132Z,3.70
2019-01-19T17:52:37.115Z,3.57
2019-01-19T17:55:34.668Z,3.60
2019-01-19T17:58:51.103Z,3.90
2019-01-19T18:02:00.011Z,3.60
2019-01-19T18:05:15.131Z,3.73
2019-01-19T18:08:10.210Z,4.10
2019-01-19T18:10:57.454Z,3.63
2019-01-19T18:14:03.072Z,3.73
2019-01-19T18:17:24.574Z,3.30
2019-01-19T18:20:32.424Z,3.20
2019-01-19T18:23:56.672Z,3.23
2019-01-19T18:27:10.459Z,3.60
2019-01-19T18:30:16.093Z,3.70
2019-01-19T18:33:29.801Z,3.80
2019-01-19T18:36:54.616Z,3.30
2019-01-19T18:39:39.477Z,3.97
2019-01-19T18:42:36.249Z,3.60
2019-01-19T18:45:59.613Z,3.80
2019-01-19T18:49:04.139Z,3.70
2019-01-19T18:51:58.599Z,3.53
2019-01-19T18:55:00.675Z,3.10
2019-01-19T18:58:15.515Z,2.97
2019-01-19T19:01:32.804Z,2.93
2019-01-19T19:04:45.099Z,3.13
2019-01-19T19:07:34.194Z,3.33
2019-01-19T19:10:24.232Z,3.60
2019-01-19T19:13:40.262Z,3.23
2019-01-19T19:16:57.442Z,2.80
2019-01-19T19:19:43.465Z,3.30
2019-01-19T19:23:23.306Z,2.80
2019-01-19T19:26:10.331Z,3.20
2019-01-19T19:29:14.432Z,3.50
2019-01-19T19:31:53.230Z,3.67
2019-01-19T19:35:11.690Z,4.40
2019-01-19T19:38:10.807Z,3.93
2019-01-19T19:41:04.248Z,4.60
2019-01-19T19:44:11.978Z,6.60
2019-01-19T19:47:23.455Z,8.50
2019-01-19T19:50:14.960Z,7.70
2019-01-19T19:52:43.004Z,6.90
2019-01-19T19:55:09.323Z,6.57
2019-01-19T19:57:37.246Z,6.27
2019-01-19T20:00:07.619Z,5.50
2019-01-19T20:02:35.535Z,5.03
2019-01-19T20:05:04.502Z,4.30
2019-01-19T20:07:34.751Z,3.57
2019-01-19T20:10:02.647Z,4.50
2019-01-19T20:12:30.740Z,4.97
2019-01-19T20:14:58.616Z,4.30
2019-01-19T20:17:26.583Z,4.80
2019-01-19T20:19:54.576Z,5.10
2019-01-19T20:22:22.435Z,5.03
2019-01-19T20:24:50.367Z,5.67
2019-01-19T20:27:18.175Z,5.90
2019-01-19T20:29:46.292Z,5.83
2019-01-19T20:32:14.249Z,6.37
2019-01-19T20:34:42.186Z,6.20
2019-01-19T20:37:10.201Z,6.33
2019-01-19T20:39:38.286Z,6.57
2019-01-19T20:42:06.278Z,7.90
2019-01-19T20:44:34.242Z,7.33
2019-01-19T20:47:02.134Z,7.07
2019-01-19T20:49:30.106Z,7.43
2019-01-19T20:51:58.016Z,7.23
2019-01-19T20:54:25.732Z,7.13
2019-01-19T20:56:53.589Z,7.23
2019-01-19T20:59:21.308Z,7.37
2019-01-19T21:01:49.177Z,7.40
2019-01-19T21:04:18.600Z,7.30
2019-01-19T21:06:46.571Z,7.37
2019-01-19T21:09:14.389Z,7.17
2019-01-19T21:11:42.328Z,7.53
2019-01-19T21:14:10.164Z,6.90
2019-01-19T21:16:37.945Z,7.23
2019-01-19T21:19:05.804Z,6.50
2019-01-19T21:21:33.390Z,7.47
2019-01-19T21:24:01.046Z,7.13
2019-01-19T21:26:29.038Z,7.23
2019-01-19T21:28:56.746Z,6.43
2019-01-19T21:31:24.349Z,6.27
2019-01-19T21:33:52.307Z,5.93
2019-01-19T21:36:19.969Z,6.23
2019-01-19T21:38:47.604Z,7.13
2019-01-19T21:41:15.077Z,6.90
2019-01-19T21:43:43.283Z,6.93
2019-01-19T21:46:10.967Z,8.37
2019-01-19T21:48:38.385Z,10.80
2019-01-19T21:51:05.903Z,9.67
2019-01-19T21:53:33.316Z,10.03
2019-01-19T21:56:00.793Z,11.40
2019-01-19T21:58:28.396Z,9.90
2019-01-19T22:00:56.032Z,9.53
2019-01-19T22:03:23.445Z,9.40
2019-01-19T22:05:50.872Z,8.67
2019-01-19T22:08:18.364Z,8.37
2019-01-19T22:10:46.475Z,8.50
2019-01-19T22:13:14.071Z,8.57
2019-01-19T22:15:41.563Z,7.87
2019-01-19T22:18:09.026Z,7.50
2019-01-19T22:20:36.523Z,6.70
2019-01-19T22:23:03.972Z,7.87
2019-01-19T22:25:31.422Z,7.63
2019-01-19T22:27:58.919Z,7.73
2019-01-19T22:30:26.456Z,7.17
2019-01-19T22:32:55.468Z,6.73
2019-01-19T22:35:25.957Z,6.67
2019-01-19T22:37:53.397Z,6.27
2019-01-19T22:40:20.947Z,6.60
2019-01-19T22:42:48.509Z,6.57
2019-01-19T22:45:15.999Z,6.80
2019-01-19T22:47:43.533Z,6.33
2019-01-19T22:50:13.252Z,6.37
2019-01-19T22:52:40.686Z,6.53
2019-01-19T22:55:08.378Z,6.77
2019-01-19T22:57:35.896Z,7.00
2019-01-19T23:00:28.579Z,6.47
2019-01-19T23:02:56.080Z,6.30
2019-01-19T23:05:23.627Z,6.30
2019-01-19T23:07:52.124Z,5.63
2019-01-19T23:10:19.583Z,6.30
2019-01-19T23:12:47.344Z,5.90
2019-01-19T23:15:14.986Z,6.00
2019-01-19T23:17:42.469Z,6.20
2019-01-19T23:20:09.973Z,6.10
2019-01-19T23:22:37.634Z,6.20
2019-01-19T23:25:06.544Z,6.00
2019-01-19T23:27:33.975Z,5.93
2019-01-19T23:30:01.492Z,6.00
2019-01-19T23:32:28.972Z,5.47
2019-01-19T23:34:56.472Z,5.60
2019-01-19T23:37:23.908Z,5.87
2019-01-19T23:39:51.368Z,6.23
2019-01-19T23:42:18.792Z,6.13
2019-01-19T23:44:46.200Z,5.80
2019-01-19T23:47:13.651Z,5.33
2019-01-19T23:49:42.350Z,5.43
2019-01-19T23:52:09.731Z,5.73
2019-01-19T23:54:37.212Z,6.27
2019-01-19T23:57:04.805Z,5.77
2019-01-19T23:59:32.226Z,5.80
